Time;durP1;ratioP1;P1;durP2;ratioP2;P2;SDS_P1;SDS_P2;PMS_P1;PMS_P2;Temp;Humidity;BMP_temperature;BMP_pressure;BME280_temperature;BME280_humidity;BME280_pressure;Samples;Min_cycle;Max_cycle;Signal;HPM_P1;HPM_P2
2022/02/20 00:02:10;;;;;;;4.70;2.37;;;10.80;99.90;;;;;;4984340;28;20266;-77
2022/02/20 00:04:36;;;;;;;4.00;1.80;;;10.90;99.90;;;;;;4985009;28;20211;-77
2022/02/20 00:07:03;;;;;;;8.82;1.20;;;10.90;99.90;;;;;;4982206;28;20253;-77
2022/02/20 00:09:29;;;;;;;7.25;2.42;;;10.90;99.90;;;;;;4982566;28;20206;-77
2022/02/20 00:11:54;;;;;;;8.00;2.27;;;11.00;99.90;;;;;;4984647;28;20707;-77
2022/02/20 00:14:20;;;;;;;8.73;2.10;;;11.00;99.90;;;;;;4980332;28;20266;-77
2022/02/20 00:16:46;;;;;;;6.20;1.67;;;11.10;99.90;;;;;;4966732;28;20241;-77
2022/02/20 00:19:12;;;;;;;5.00;1.60;;;11.10;99.90;;;;;;4979894;28;20664;-77
2022/02/20 00:21:38;;;;;;;6.40;1.63;;;11.20;99.90;;;;;;4984460;28;20274;-77
2022/02/20 00:24:04;;;;;;;8.97;1.83;;;11.20;99.90;;;;;;4983135;28;20179;-76
2022/02/20 00:26:30;;;;;;;9.48;2.38;;;11.30;99.90;;;;;;4981374;28;20195;-75
2022/02/20 00:28:56;;;;;;;5.90;2.28;;;11.30;99.90;;;;;;4980457;28;20290;-76
2022/02/20 00:31:22;;;;;;;10.53;1.40;;;11.30;99.90;;;;;;4983413;28;20310;-76
2022/02/20 00:33:48;;;;;;;7.20;1.70;;;11.40;99.90;;;;;;4979521;28;20172;-78
2022/02/20 00:36:13;;;;;;;6.53;1.90;;;11.40;99.90;;;;;;4974371;28;20191;-76
2022/02/20 00:38:39;;;;;;;6.20;1.60;;;11.50;99.90;;;;;;4984196;28;20203;-77
2022/02/20 00:41:05;;;;;;;5.77;1.93;;;11.50;99.90;;;;;;4985622;28;20654;-76
2022/02/20 00:43:30;;;;;;;6.47;1.70;;;11.50;99.90;;;;;;4980919;28;20183;-76
2022/02/20 00:45:56;;;;;;;4.07;1.87;;;11.40;99.90;;;;;;4981670;28;20273;-77
2022/02/20 00:48:22;;;;;;;4.90;1.23;;;11.40;99.90;;;;;;4980785;28;20199;-76
2022/02/20 00:50:50;;;;;;;4.78;1.73;;;11.40;99.90;;;;;;4982233;28;20219;-78
2022/02/20 00:53:15;;;;;;;7.25;3.08;;;11.30;99.90;;;;;;4979597;28;20182;-78
2022/02/20 00:55:41;;;;;;;7.27;2.40;;;11.20;99.90;;;;;;4965961;28;20258;-77
2022/02/20 00:58:08;;;;;;;6.10;1.77;;;11.20;99.90;;;;;;4981170;28;20611;-78
2022/02/20 01:00:35;;;;;;;6.05;1.75;;;11.10;99.90;;;;;;4964044;28;20191;-78
2022/02/20 01:03:01;;;;;;;8.02;1.45;;;11.10;99.90;;;;;;4982146;28;20186;-78
2022/02/20 01:05:28;;;;;;;3.95;1.85;;;11.00;99.90;;;;;;4980204;28;20190;-78
2022/02/20 01:07:54;;;;;;;4.72;1.10;;;10.90;99.90;;;;;;4965641;28;20183;-77
2022/02/20 01:10:20;;;;;;;4.03;1.00;;;10.80;99.90;;;;;;4979632;28;20237;-77
2022/02/20 01:12:46;;;;;;;1.60;0.90;;;10.70;99.90;;;;;;4990911;28;20569;-77
2022/02/20 01:15:13;;;;;;;5.27;0.90;;;10.60;99.90;;;;;;4993445;28;20171;-78
2022/02/20 01:17:39;;;;;;;4.18;1.10;;;10.50;99.90;;;;;;4993511;28;20578;-77
2022/02/20 01:20:06;;;;;;;3.80;1.13;;;10.40;99.90;;;;;;4994727;28;20179;-77
2022/02/20 01:22:32;;;;;;;5.05;1.55;;;10.40;99.90;;;;;;4987985;28;20179;-78
2022/02/20 01:24:58;;;;;;;3.83;1.10;;;10.30;99.90;;;;;;4984748;28;20183;-77
2022/02/20 01:27:24;;;;;;;3.30;1.37;;;10.20;99.90;;;;;;4980825;28;20214;-77
2022/02/20 01:29:51;;;;;;;3.53;1.17;;;10.10;99.90;;;;;;4984569;28;20615;-78
2022/02/20 01:32:17;;;;;;;2.20;0.90;;;10.10;99.90;;;;;;4967252;28;20226;-78
2022/02/20 01:34:43;;;;;;;4.37;1.33;;;10.00;99.90;;;;;;4986556;28;20206;-78
2022/02/20 01:37:09;;;;;;;6.57;1.10;;;9.90;99.90;;;;;;4985585;28;20296;-78
2022/02/20 01:39:34;;;;;;;3.43;0.97;;;9.90;99.90;;;;;;4974171;28;20217;-78
2022/02/20 01:42:08;;;;;;;9.80;1.38;;;9.80;99.90;;;;;;4993378;28;20230;-78
2022/02/20 01:44:34;;;;;;;3.90;1.33;;;9.70;99.90;;;;;;4986856;28;20655;-77
2022/02/20 01:47:07;;;;;;;2.50;1.17;;;9.70;99.90;;;;;;4982614;28;20627;-77
2022/02/20 01:49:37;;;;;;;4.32;1.08;;;9.60;99.90;;;;;;4973886;28;20202;-78
2022/02/20 01:52:04;;;;;;;5.80;1.33;;;9.60;99.90;;;;;;4970349;28;20180;-77
2022/02/20 01:54:30;;;;;;;6.75;1.45;;;9.50;99.90;;;;;;4995993;28;20652;-77
2022/02/20 01:56:56;;;;;;;3.90;1.65;;;9.50;99.90;;;;;;4997134;28;20183;-77
2022/02/20 01:59:41;;;;;;;2.97;1.48;;;9.40;99.90;;;;;;4990449;28;20195;-77
2022/02/20 02:02:41;;;;;;;5.60;1.20;;;9.40;99.90;;;;;;4997428;28;20210;-77
2022/02/20 02:05:27;;;;;;;2.78;1.10;;;9.30;99.90;;;;;;4987106;28;20182;-77
2022/02/20 02:07:53;;;;;;;4.47;1.33;;;9.30;99.90;;;;;;4967093;28;20298;-77
2022/02/20 02:10:42;;;;;;;3.35;1.38;;;9.20;99.90;;;;;;4984409;28;20595;-78
2022/02/20 02:13:40;;;;;;;2.33;1.20;;;9.10;99.90;;;;;;4965987;28;20192;-77
2022/02/20 02:16:38;;;;;;;3.55;1.30;;;9.10;99.90;;;;;;4980196;28;20183;-78
2022/02/20 02:19:23;;;;;;;6.00;2.00;;;9.10;99.90;;;;;;4984970;28;20215;-78
2022/02/20 02:22:01;;;;;;;3.83;1.83;;;9.00;99.90;;;;;;4986467;28;20176;-78
2022/02/20 02:24:42;;;;;;;4.55;1.88;;;9.00;99.90;;;;;;4987018;28;20671;-78
2022/02/20 02:27:21;;;;;;;4.35;1.73;;;8.90;99.90;;;;;;4986696;28;20218;-78
2022/02/20 02:29:55;;;;;;;2.85;1.30;;;8.90;99.90;;;;;;4985347;28;20191;-78
2022/02/20 02:32:21;;;;;;;3.50;1.60;;;8.80;99.90;;;;;;4987623;28;20186;-78
2022/02/20 02:34:49;;;;;;;5.20;1.88;;;8.80;99.90;;;;;;4967162;28;20619;-78
2022/02/20 02:37:16;;;;;;;6.68;1.88;;;8.80;99.90;;;;;;4983897;28;20194;-78
2022/02/20 02:39:42;;;;;;;3.75;1.70;;;8.70;99.90;;;;;;4966633;28;20258;-78
2022/02/20 02:42:09;;;;;;;4.32;1.80;;;8.70;99.90;;;;;;4982382;28;20196;-77
2022/02/20 02:44:36;;;;;;;5.53;2.45;;;8.70;99.90;;;;;;4985529;28;20568;-77
2022/02/20 02:47:02;;;;;;;5.50;2.15;;;8.60;99.90;;;;;;4981735;28;20211;-77
2022/02/20 02:49:28;;;;;;;2.55;1.40;;;8.60;99.90;;;;;;4983895;28;20206;-77
2022/02/20 02:51:53;;;;;;;4.50;1.50;;;8.60;99.90;;;;;;4966529;28;20168;-77
2022/02/20 02:54:22;;;;;;;4.65;2.15;;;8.50;99.90;;;;;;4985687;28;20183;-77
2022/02/20 02:56:49;;;;;;;4.35;1.13;;;8.50;99.90;;;;;;4982628;28;20211;-77
2022/02/20 02:59:16;;;;;;;3.53;1.80;;;8.40;99.90;;;;;;4968754;28;20318;-77
2022/02/20 03:01:44;;;;;;;5.30;2.15;;;8.40;99.90;;;;;;4981537;28;20550;-78
2022/02/20 03:04:10;;;;;;;10.00;1.85;;;8.30;99.90;;;;;;4987164;28;20176;-77
2022/02/20 03:06:36;;;;;;;3.20;1.80;;;8.30;99.90;;;;;;4983622;28;20245;-78
2022/02/20 03:09:08;;;;;;;3.20;1.88;;;8.30;99.90;;;;;;4986699;28;20972;-78
2022/02/20 03:11:36;;;;;;;4.07;2.00;;;8.20;99.90;;;;;;4987504;28;20226;-78
2022/02/20 03:14:03;;;;;;;6.18;2.22;;;8.20;99.90;;;;;;4969726;28;20181;-77
2022/02/20 03:16:30;;;;;;;2.70;1.80;;;8.10;99.90;;;;;;4982869;28;20179;-77
2022/02/20 03:18:55;;;;;;;3.47;1.90;;;8.10;99.90;;;;;;4982762;28;20202;-78
2022/02/20 03:21:24;;;;;;;3.28;2.20;;;8.00;99.90;;;;;;4980715;28;20778;-78
2022/02/20 03:23:51;;;;;;;5.47;2.35;;;8.00;99.90;;;;;;4984036;28;20181;-77
2022/02/20 03:26:17;;;;;;;3.67;1.90;;;7.90;99.90;;;;;;4980861;28;20745;-78
2022/02/20 03:28:44;;;;;;;7.22;2.00;;;7.90;99.90;;;;;;4984262;28;20199;-78
2022/02/20 03:31:12;;;;;;;5.28;2.58;;;7.90;99.90;;;;;;4984785;28;20176;-78
2022/02/20 03:33:38;;;;;;;4.27;2.10;;;7.80;99.90;;;;;;4967926;28;20239;-77
2022/02/20 03:36:05;;;;;;;4.30;2.70;;;7.80;99.90;;;;;;4968534;28;20199;-77
2022/02/20 03:38:33;;;;;;;5.90;3.03;;;7.70;99.90;;;;;;4982418;28;20231;-78
2022/02/20 03:40:58;;;;;;;3.42;2.13;;;7.70;99.90;;;;;;4985880;28;20186;-78
2022/02/20 03:43:35;;;;;;;5.05;2.47;;;7.70;99.90;;;;;;4981876;28;20187;-78
2022/02/20 03:46:03;;;;;;;4.15;2.03;;;7.60;99.90;;;;;;4988742;28;20211;-78
2022/02/20 03:48:32;;;;;;;5.93;2.45;;;7.60;99.90;;;;;;4984767;28;20202;-78
2022/02/20 03:51:23;;;;;;;4.35;2.40;;;7.60;99.90;;;;;;4978856;28;20188;-78
2022/02/20 03:53:49;;;;;;;6.23;1.90;;;7.60;99.90;;;;;;4982643;28;20647;-78
2022/02/20 03:56:15;;;;;;;6.17;2.40;;;7.60;99.90;;;;;;4984341;28;20655;-78
2022/02/20 03:58:46;;;;;;;7.22;2.58;;;7.60;99.90;;;;;;4968072;28;21189;-78
2022/02/20 04:01:12;;;;;;;4.35;1.70;;;7.60;99.90;;;;;;4981201;28;20516;-78
2022/02/20 04:03:43;;;;;;;4.35;2.10;;;7.60;99.90;;;;;;4990661;28;20538;-77
2022/02/20 04:06:10;;;;;;;3.47;2.10;;;7.60;99.90;;;;;;4984279;28;20739;-78
2022/02/20 04:08:42;;;;;;;3.38;1.98;;;7.60;99.90;;;;;;4981503;28;20679;-78
2022/02/20 04:11:09;;;;;;;5.63;1.95;;;7.50;99.90;;;;;;4967950;28;20538;-78
2022/02/20 04:14:01;;;;;;;5.45;1.85;;;7.50;99.90;;;;;;4980958;28;20192;-77
2022/02/20 04:16:55;;;;;;;7.10;1.60;;;7.60;99.90;;;;;;4985336;28;20186;-78
2022/02/20 04:19:21;;;;;;;6.07;2.22;;;7.60;99.90;;;;;;4982953;28;20203;-78
2022/02/20 04:21:47;;;;;;;2.47;2.07;;;7.60;99.90;;;;;;4984878;28;20545;-78
2022/02/20 04:24:20;;;;;;;5.25;2.53;;;7.60;99.90;;;;;;4964238;28;20242;-78
2022/02/20 04:26:46;;;;;;;3.90;1.53;;;7.60;99.90;;;;;;4983426;28;20276;-78
2022/02/20 04:29:20;;;;;;;2.45;1.45;;;7.60;99.90;;;;;;4981855;28;20200;-77
2022/02/20 04:31:47;;;;;;;7.00;2.10;;;7.50;99.90;;;;;;4979541;28;20210;-78
2022/02/20 04:34:13;;;;;;;6.87;2.50;;;7.50;99.90;;;;;;4982972;28;20167;-77
2022/02/20 04:36:39;;;;;;;3.47;2.03;;;7.50;99.90;;;;;;4966027;28;20189;-77
2022/02/20 04:39:10;;;;;;;2.53;1.40;;;7.40;99.90;;;;;;4986883;28;20650;-78
2022/02/20 04:41:42;;;;;;;2.50;1.50;;;7.40;99.90;;;;;;4988149;28;20674;-77
2022/02/20 04:44:15;;;;;;;3.80;1.60;;;7.40;99.90;;;;;;4993952;28;20197;-78
2022/02/20 04:46:41;;;;;;;8.27;2.20;;;7.40;99.90;;;;;;4996752;28;20572;-78
2022/02/20 04:49:09;;;;;;;2.60;1.60;;;7.40;99.90;;;;;;4984947;28;21189;-78
2022/02/20 04:51:54;;;;;;;8.05;2.28;;;7.30;99.90;;;;;;4989269;28;20198;-78
2022/02/20 04:54:40;;;;;;;4.72;2.10;;;7.30;99.90;;;;;;4996271;28;20181;-78
2022/02/20 04:57:07;;;;;;;3.13;1.90;;;7.30;99.90;;;;;;4976056;28;20635;-78
2022/02/20 04:59:33;;;;;;;6.10;2.72;;;7.30;99.90;;;;;;4981654;28;20230;-78
2022/02/20 05:01:59;;;;;;;2.80;1.75;;;7.30;99.90;;;;;;4965750;28;20179;-78
2022/02/20 05:04:29;;;;;;;5.25;2.08;;;7.30;99.90;;;;;;4979226;28;20634;-77
2022/02/20 05:06:56;;;;;;;3.78;2.00;;;7.30;99.90;;;;;;4979186;28;20536;-78
2022/02/20 05:09:31;;;;;;;7.55;2.53;;;7.40;99.90;;;;;;4979829;28;20201;-77
2022/02/20 05:12:00;;;;;;;3.90;1.80;;;7.50;99.90;;;;;;4966575;28;20190;-77
2022/02/20 05:14:26;;;;;;;4.68;2.30;;;7.50;99.90;;;;;;4980590;28;20190;-77
2022/02/20 05:16:56;;;;;;;5.75;3.75;;;7.50;99.90;;;;;;4980982;28;20550;-78
2022/02/20 05:19:36;;;;;;;4.50;2.00;;;7.60;99.90;;;;;;4979149;28;20230;-78
2022/02/20 05:22:02;;;;;;;9.13;2.67;;;7.70;99.90;;;;;;4983803;28;20225;-77
2022/02/20 05:24:36;;;;;;;3.72;1.85;;;7.70;99.90;;;;;;4951688;28;20655;-77
2022/02/20 05:27:03;;;;;;;3.50;2.17;;;7.80;99.90;;;;;;4965797;28;20242;-78
2022/02/20 05:29:37;;;;;;;7.32;2.15;;;7.80;99.90;;;;;;4979543;28;20200;-77
2022/02/20 05:32:04;;;;;;;3.10;2.13;;;7.90;99.90;;;;;;4980470;28;20179;-78
2022/02/20 05:34:45;;;;;;;3.08;1.85;;;8.00;99.90;;;;;;4983864;28;20183;-78
2022/02/20 05:37:11;;;;;;;3.40;1.40;;;8.00;99.90;;;;;;4969249;28;20702;-77
2022/02/20 05:39:41;;;;;;;4.00;1.85;;;8.00;99.90;;;;;;4963079;28;20622;-78
2022/02/20 05:42:07;;;;;;;4.65;1.77;;;8.10;99.90;;;;;;4950009;28;20249;-78
2022/02/20 05:44:37;;;;;;;3.67;1.60;;;8.10;99.90;;;;;;4989537;28;20210;-78
2022/02/20 05:47:04;;;;;;;8.90;2.10;;;8.10;99.90;;;;;;4979079;28;20691;-78
2022/02/20 05:49:30;;;;;;;5.78;1.92;;;8.20;99.90;;;;;;4980806;28;20598;-77
2022/02/20 05:51:58;;;;;;;5.20;1.67;;;8.20;99.90;;;;;;4980262;28;20184;-78
2022/02/20 05:54:33;;;;;;;3.80;1.90;;;8.20;99.90;;;;;;4964090;28;20175;-76
2022/02/20 05:56:58;;;;;;;5.63;2.70;;;8.30;99.90;;;;;;4981426;28;20183;-78
2022/02/20 05:59:24;;;;;;;2.90;1.47;;;8.30;99.90;;;;;;4981622;28;20678;-77
2022/02/20 06:01:54;;;;;;;3.85;1.60;;;8.40;99.90;;;;;;4966710;28;21039;-77
2022/02/20 06:04:23;;;;;;;7.28;1.65;;;8.40;99.90;;;;;;4969125;28;20740;-77
2022/02/20 06:06:49;;;;;;;6.47;1.30;;;8.40;99.90;;;;;;4983292;28;20199;-77
2022/02/20 06:09:20;;;;;;;4.70;1.45;;;8.40;99.90;;;;;;4985224;28;20199;-77
2022/02/20 06:11:50;;;;;;;4.45;1.00;;;8.50;99.90;;;;;;4984459;28;20225;-77
2022/02/20 06:14:33;;;;;;;4.50;1.63;;;8.50;99.90;;;;;;4987754;28;20171;-77
2022/02/20 06:17:19;;;;;;;5.47;1.13;;;8.50;99.90;;;;;;4999200;28;20193;-77
2022/02/20 06:20:06;;;;;;;10.10;1.48;;;8.60;99.90;;;;;;4997697;28;20193;-77
2022/02/20 06:22:42;;;;;;;6.10;1.95;;;8.60;99.90;;;;;;4982894;28;20242;-76
2022/02/20 06:25:32;;;;;;;5.03;1.40;;;8.60;99.90;;;;;;4972698;28;20213;-77
2022/02/20 06:28:13;;;;;;;6.10;1.40;;;8.70;99.90;;;;;;4985351;28;20208;-76
2022/02/20 06:30:39;;;;;;;5.57;1.77;;;8.70;99.90;;;;;;4982942;28;20187;-76
2022/02/20 06:33:07;;;;;;;5.00;1.70;;;8.70;99.90;;;;;;4967976;28;20222;-76
2022/02/20 06:35:36;;;;;;;5.63;1.80;;;8.70;99.90;;;;;;4981595;28;20564;-76
2022/02/20 06:38:02;;;;;;;7.55;2.08;;;8.60;99.90;;;;;;4984385;28;20206;-76
2022/02/20 06:40:28;;;;;;;4.23;1.20;;;8.60;99.90;;;;;;4974322;28;20176;-76
2022/02/20 06:42:55;;;;;;;4.45;1.38;;;8.60;99.90;;;;;;4983004;28;20178;-76
2022/02/20 06:45:25;;;;;;;4.82;1.55;;;8.60;99.90;;;;;;4976362;28;20797;-76
2022/02/20 06:48:05;;;;;;;4.93;1.35;;;8.60;99.90;;;;;;4982741;28;20346;-75
2022/02/20 06:50:59;;;;;;;11.05;1.63;;;8.60;99.90;;;;;;4981968;28;20226;-75
2022/02/20 06:53:43;;;;;;;6.03;1.77;;;8.60;99.90;;;;;;4985565;28;20575;-77
2022/02/20 06:56:21;;;;;;;6.10;1.50;;;8.50;99.90;;;;;;4986531;28;20190;-76
2022/02/20 06:58:47;;;;;;;6.47;1.90;;;8.50;99.90;;;;;;4983663;28;20557;-76
2022/02/20 07:01:13;;;;;;;4.75;1.40;;;8.50;99.90;;;;;;4980371;28;20242;-76
2022/02/20 07:03:38;;;;;;;6.97;1.73;;;8.50;99.90;;;;;;4978429;28;20707;-76
2022/02/20 07:06:04;;;;;;;8.03;1.90;;;8.50;99.90;;;;;;4989511;28;20206;-77
2022/02/20 07:08:31;;;;;;;9.73;1.92;;;8.40;99.90;;;;;;4973279;28;20231;-76
2022/02/20 07:10:57;;;;;;;12.98;1.92;;;8.50;99.90;;;;;;4981340;28;20176;-76
2022/02/20 07:13:23;;;;;;;11.93;1.60;;;8.50;99.90;;;;;;4985277;28;20537;-76
2022/02/20 07:15:49;;;;;;;4.13;1.30;;;8.50;99.90;;;;;;4980366;28;20618;-76
2022/02/20 07:18:15;;;;;;;5.40;1.60;;;8.50;99.90;;;;;;4981528;28;21162;-76
2022/02/20 07:20:44;;;;;;;6.95;2.03;;;8.50;99.90;;;;;;4983035;28;20176;-76
2022/02/20 07:23:11;;;;;;;11.27;2.22;;;8.60;99.90;;;;;;4982707;28;20270;-76
2022/02/20 07:25:36;;;;;;;5.80;1.70;;;8.50;99.90;;;;;;4985412;28;20175;-76
2022/02/20 07:28:03;;;;;;;5.25;1.40;;;8.50;99.90;;;;;;4983716;28;20282;-76
2022/02/20 07:30:29;;;;;;;5.80;1.25;;;8.60;99.90;;;;;;4984806;28;20175;-77
2022/02/20 07:32:56;;;;;;;7.85;1.63;;;8.60;99.90;;;;;;4982901;28;20180;-76
2022/02/20 07:35:22;;;;;;;8.23;2.38;;;8.60;99.90;;;;;;4981983;28;20185;-76
2022/02/20 07:37:48;;;;;;;7.25;1.73;;;8.60;99.90;;;;;;4984533;28;20175;-76
2022/02/20 07:40:15;;;;;;;5.07;1.13;;;8.60;99.90;;;;;;4981752;28;20238;-77
2022/02/20 07:42:42;;;;;;;4.68;1.60;;;8.70;99.90;;;;;;4984748;28;20530;-77
2022/02/20 07:45:11;;;;;;;8.73;1.65;;;8.70;99.90;;;;;;4964828;28;20222;-76
2022/02/20 07:47:52;;;;;;;8.20;1.63;;;8.70;99.90;;;;;;4982960;28;20616;-76
2022/02/20 07:50:21;;;;;;;7.05;1.65;;;8.80;99.90;;;;;;4989731;28;20167;-75
2022/02/20 07:52:47;;;;;;;7.22;1.65;;;8.80;99.90;;;;;;4990870;28;20175;-76
2022/02/20 07:55:13;;;;;;;8.17;2.07;;;8.90;99.90;;;;;;4999900;28;20550;-76
2022/02/20 07:57:38;;;;;;;2.88;1.23;;;8.90;99.90;;;;;;4980554;28;20189;-76
2022/02/20 08:00:05;;;;;;;6.57;1.73;;;9.00;99.90;;;;;;4986083;28;20712;-75
2022/02/20 08:02:38;;;;;;;5.95;1.05;;;9.00;99.90;;;;;;4981824;28;20180;-75
2022/02/20 08:05:04;;;;;;;4.90;1.13;;;9.10;99.90;;;;;;4986577;28;20192;-75
2022/02/20 08:07:30;;;;;;;5.93;1.63;;;9.10;99.90;;;;;;4984821;28;20237;-74
2022/02/20 08:09:56;;;;;;;6.93;1.70;;;9.20;99.90;;;;;;4988597;28;20296;-74
2022/02/20 08:12:21;;;;;;;4.53;1.03;;;9.20;99.90;;;;;;4981842;28;20595;-75
2022/02/20 08:14:47;;;;;;;4.93;1.13;;;9.30;99.90;;;;;;4980877;28;20180;-74
2022/02/20 08:17:13;;;;;;;6.10;1.00;;;9.30;99.90;;;;;;4983246;28;20188;-74
2022/02/20 08:19:39;;;;;;;6.23;1.07;;;9.40;99.90;;;;;;4987455;28;20198;-75
2022/02/20 08:22:05;;;;;;;6.77;0.97;;;9.40;99.90;;;;;;4982106;28;20187;-74
2022/02/20 08:24:30;;;;;;;3.57;1.13;;;9.50;99.90;;;;;;4973354;28;20179;-75
2022/02/20 08:26:56;;;;;;;3.83;1.00;;;9.60;99.90;;;;;;4986423;28;20603;-75
2022/02/20 08:29:22;;;;;;;5.05;0.90;;;9.60;99.90;;;;;;4974597;28;20207;-76
2022/02/20 08:31:49;;;;;;;3.75;0.90;;;9.70;99.90;;;;;;4980081;28;20180;-76
2022/02/20 08:34:15;;;;;;;2.25;0.90;;;9.70;99.90;;;;;;4973856;28;20265;-75
2022/02/20 08:36:41;;;;;;;2.13;0.93;;;9.80;99.90;;;;;;4987016;28;20334;-76
2022/02/20 08:39:07;;;;;;;2.53;1.10;;;9.80;99.90;;;;;;4983571;28;20231;-76
2022/02/20 08:41:35;;;;;;;1.60;0.70;;;9.90;99.90;;;;;;4974152;28;20285;-75
2022/02/20 08:44:03;;;;;;;4.03;0.80;;;9.90;99.90;;;;;;4974549;28;20190;-76
2022/02/20 08:46:29;;;;;;;1.80;0.70;;;10.00;99.90;;;;;;4983244;28;20569;-74
2022/02/20 08:48:56;;;;;;;2.78;0.80;;;10.10;99.90;;;;;;4980967;28;21039;-74
2022/02/20 08:51:21;;;;;;;3.87;0.80;;;10.20;99.90;;;;;;4983463;28;20175;-74
2022/02/20 08:53:48;;;;;;;2.80;0.70;;;10.20;99.90;;;;;;4981308;28;20182;-74
2022/02/20 08:56:13;;;;;;;2.10;0.60;;;10.30;99.90;;;;;;4982371;28;20671;-75
2022/02/20 08:58:39;;;;;;;2.07;0.60;;;10.40;99.90;;;;;;4979772;28;20241;-75
2022/02/20 09:01:05;;;;;;;1.80;0.93;;;10.50;99.90;;;;;;4978248;28;20584;-76
2022/02/20 09:03:32;;;;;;;1.10;0.50;;;10.50;99.90;;;;;;4986224;28;21020;-75
2022/02/20 09:05:58;;;;;;;3.38;0.50;;;10.60;99.90;;;;;;4970471;28;20179;-75
2022/02/20 09:08:23;;;;;;;1.30;0.50;;;10.70;99.90;;;;;;4978412;28;20199;-76
2022/02/20 09:10:49;;;;;;;1.60;0.60;;;10.80;99.90;;;;;;4978485;28;20185;-75
2022/02/20 09:13:16;;;;;;;1.70;0.50;;;10.90;99.90;;;;;;4958739;28;20190;-74
2022/02/20 09:15:42;;;;;;;1.20;0.50;;;11.00;99.90;;;;;;4970190;28;20175;-74
2022/02/20 09:18:09;;;;;;;1.40;0.40;;;11.00;99.90;;;;;;4989845;28;20206;-74
2022/02/20 09:20:35;;;;;;;1.40;0.50;;;11.10;99.90;;;;;;4973837;28;20183;-74
2022/02/20 09:23:00;;;;;;;1.10;0.50;;;11.20;99.90;;;;;;4983504;28;20194;-74
2022/02/20 09:25:27;;;;;;;1.63;0.60;;;11.30;99.90;;;;;;4966191;28;20676;-74
2022/02/20 09:27:52;;;;;;;1.40;0.50;;;11.30;99.90;;;;;;4947038;28;20314;-74
2022/02/20 09:30:18;;;;;;;2.40;0.70;;;11.40;99.90;;;;;;4981324;28;20229;-74
2022/02/20 09:32:45;;;;;;;1.30;0.40;;;11.50;99.90;;;;;;4978602;28;20179;-73
2022/02/20 09:35:11;;;;;;;1.67;0.50;;;11.50;99.90;;;;;;4982958;28;20179;-73
2022/02/20 09:37:37;;;;;;;1.85;0.60;;;11.60;99.90;;;;;;4992068;28;20672;-74
2022/02/20 09:40:04;;;;;;;2.90;0.70;;;11.60;99.90;;;;;;4983351;28;20238;-74
2022/02/20 09:42:30;;;;;;;1.85;0.50;;;11.70;99.90;;;;;;5006834;28;20883;-74
2022/02/20 09:44:56;;;;;;;3.17;0.70;;;11.80;99.90;;;;;;4991948;28;20191;-74
2022/02/20 09:47:26;;;;;;;1.43;0.60;;;11.90;99.90;;;;;;4986557;28;20202;-74
2022/02/20 09:49:58;;;;;;;1.25;0.55;;;11.90;99.90;;;;;;4984019;28;20195;-74
2022/02/20 09:52:24;;;;;;;1.70;0.60;;;12.00;99.90;;;;;;4975610;28;20182;-73
2022/02/20 09:54:49;;;;;;;1.73;0.70;;;12.00;99.90;;;;;;4988130;28;20670;-74
2022/02/20 09:57:15;;;;;;;2.63;1.63;;;12.10;99.90;;;;;;4993718;28;20180;-74
2022/02/20 09:59:41;;;;;;;2.47;0.70;;;12.10;99.90;;;;;;4984099;28;20195;-75
2022/02/20 10:02:13;;;;;;;2.50;0.97;;;12.20;99.90;;;;;;4985387;28;20258;-75
2022/02/20 10:04:40;;;;;;;1.60;0.70;;;12.20;99.90;;;;;;4987171;28;20955;-75
2022/02/20 10:07:23;;;;;;;2.75;0.70;;;12.30;99.90;;;;;;4992199;28;20210;-74
2022/02/20 10:09:48;;;;;;;2.22;0.85;;;12.30;99.90;;;;;;4993720;28;20742;-74
2022/02/20 10:12:19;;;;;;;3.30;0.70;;;12.30;99.90;;;;;;4985935;28;20320;-74
2022/02/20 10:14:45;;;;;;;1.67;0.70;;;12.40;99.90;;;;;;4973726;28;20184;-74
2022/02/20 10:17:17;;;;;;;2.50;0.73;;;12.40;99.90;;;;;;4975868;28;20182;-74
2022/02/20 10:20:07;;;;;;;2.67;0.77;;;12.40;99.90;;;;;;4982684;28;21223;-74
2022/02/20 10:23:04;;;;;;;3.28;1.10;;;12.40;99.90;;;;;;4969596;28;20723;-77
2022/02/20 10:26:12;;;;;;;1.50;0.60;;;12.30;99.90;;;;;;4971932;28;20283;-76
2022/02/20 10:29:04;;;;;;;1.65;0.60;;;12.40;99.90;;;;;;4984512;28;20198;-75
2022/02/20 10:31:43;;;;;;;3.45;0.70;;;12.60;99.90;;;;;;4980690;28;20175;-75
2022/02/20 10:34:16;;;;;;;3.55;0.70;;;12.60;99.90;;;;;;4984926;28;20172;-75
2022/02/20 10:36:56;;;;;;;1.63;0.60;;;12.70;99.90;;;;;;4985983;28;20187;-75
2022/02/20 10:39:26;;;;;;;5.38;0.98;;;12.80;99.90;;;;;;4982179;28;20207;-76
2022/02/20 10:41:53;;;;;;;4.50;0.65;;;12.80;99.90;;;;;;4986613;28;20643;-76
2022/02/20 10:44:20;;;;;;;2.05;0.70;;;12.90;99.90;;;;;;4981521;28;20186;-74
2022/02/20 10:46:46;;;;;;;1.58;0.63;;;12.90;99.90;;;;;;4984470;28;20227;-77
2022/02/20 10:49:25;;;;;;;1.35;0.60;;;12.90;99.90;;;;;;4982993;28;20230;-77
2022/02/20 10:51:51;;;;;;;2.10;0.70;;;12.90;99.90;;;;;;4980944;28;20175;-76
2022/02/20 10:54:17;;;;;;;3.30;0.60;;;13.00;99.90;;;;;;4983079;28;20186;-77
2022/02/20 10:56:44;;;;;;;1.20;0.57;;;13.00;99.90;;;;;;4982032;28;20597;-77
2022/02/20 10:59:10;;;;;;;1.50;0.60;;;13.10;99.90;;;;;;4983799;28;20567;-75
2022/02/20 11:01:36;;;;;;;2.55;0.65;;;13.10;99.90;;;;;;4980835;28;20180;-75
2022/02/20 11:04:10;;;;;;;2.80;0.60;;;13.10;99.90;;;;;;4984138;28;20197;-75
2022/02/20 11:06:44;;;;;;;2.25;0.50;;;13.10;99.90;;;;;;4985102;28;20629;-75
2022/02/20 11:09:10;;;;;;;2.20;0.47;;;13.10;99.90;;;;;;4965385;28;20702;-75
2022/02/20 11:11:42;;;;;;;1.75;0.70;;;13.20;99.90;;;;;;4975883;28;20187;-74
2022/02/20 11:14:15;;;;;;;2.75;0.60;;;13.20;99.90;;;;;;4988787;28;20226;-74
2022/02/20 11:16:53;;;;;;;2.38;0.60;;;13.20;99.90;;;;;;4980750;28;20175;-75
2022/02/20 11:19:23;;;;;;;2.30;0.70;;;13.20;99.90;;;;;;4987317;28;20194;-74
2022/02/20 11:21:53;;;;;;;2.88;0.50;;;13.20;99.90;;;;;;4981009;28;20571;-74
2022/02/20 11:24:19;;;;;;;3.20;0.80;;;13.30;99.90;;;;;;4983882;28;20271;-74
2022/02/20 11:26:45;;;;;;;1.52;0.60;;;13.30;99.90;;;;;;4982622;28;20239;-75
2022/02/20 11:29:13;;;;;;;2.70;0.70;;;13.30;99.90;;;;;;4982348;28;20197;-75
2022/02/20 11:31:40;;;;;;;2.58;0.75;;;13.30;99.90;;;;;;4983827;28;20182;-75
2022/02/20 11:34:07;;;;;;;2.65;1.10;;;13.40;99.90;;;;;;4979858;28;20198;-75
2022/02/20 11:36:32;;;;;;;3.40;0.70;;;13.40;99.90;;;;;;4984288;28;20193;-75
2022/02/20 11:39:07;;;;;;;4.80;1.10;;;13.40;99.90;;;;;;4981228;28;21276;-75
2022/02/20 11:41:33;;;;;;;2.33;0.87;;;13.30;99.90;;;;;;4982271;28;20808;-76
2022/02/20 11:44:17;;;;;;;2.42;0.95;;;13.40;99.90;;;;;;4980405;28;20729;-77
2022/02/20 11:46:53;;;;;;;1.63;0.75;;;13.40;99.90;;;;;;4987511;28;20570;-76
2022/02/20 11:49:26;;;;;;;3.13;0.70;;;13.50;99.90;;;;;;4986036;28;20285;-76
2022/02/20 11:52:09;;;;;;;3.17;0.80;;;13.60;99.90;;;;;;4980843;28;20254;-76
2022/02/20 11:54:40;;;;;;;3.80;0.90;;;13.60;99.90;;;;;;4980656;28;20254;-76
2022/02/20 11:57:12;;;;;;;3.03;0.80;;;13.70;99.90;;;;;;4982732;28;20543;-76
2022/02/20 12:00:04;;;;;;;3.63;0.82;;;13.70;99.90;;;;;;4980671;28;20218;-76
2022/02/20 12:03:04;;;;;;;6.57;1.65;;;13.70;99.90;;;;;;4980723;28;20203;-77
2022/02/20 12:05:32;;;;;;;3.03;1.10;;;13.80;99.90;;;;;;4981049;28;20172;-76
2022/02/20 12:07:58;;;;;;;3.95;0.85;;;13.90;99.90;;;;;;4980300;28;20208;-76
2022/02/20 12:10:24;;;;;;;5.95;1.77;;;13.90;99.90;;;;;;4984307;28;20175;-76
2022/02/20 12:12:53;;;;;;;6.17;1.70;;;14.00;99.90;;;;;;4981397;28;20184;-76
2022/02/20 12:15:33;;;;;;;5.75;2.00;;;13.90;99.90;;;;;;4983318;28;20527;-76
2022/02/20 12:18:12;;;;;;;2.10;1.23;;;14.00;99.90;;;;;;4982802;28;20193;-77
2022/02/20 12:20:53;;;;;;;4.13;1.38;;;14.00;99.90;;;;;;4980781;28;20211;-76
2022/02/20 12:23:30;;;;;;;3.60;1.33;;;14.00;99.90;;;;;;4981743;28;20180;-76
2022/02/20 12:26:01;;;;;;;3.73;1.07;;;14.10;99.90;;;;;;4982262;28;21196;-75
2022/02/20 12:28:42;;;;;;;5.65;1.30;;;14.10;99.90;;;;;;4980879;28;20633;-75
2022/02/20 12:31:14;;;;;;;4.57;0.98;;;14.10;99.90;;;;;;4979453;28;20180;-75
2022/02/20 12:33:46;;;;;;;4.65;1.27;;;14.10;99.90;;;;;;4989039;28;20243;-76
2022/02/20 12:36:13;;;;;;;4.25;1.17;;;14.10;99.90;;;;;;4995608;28;20179;-76
2022/02/20 12:38:53;;;;;;;7.78;1.10;;;14.10;99.90;;;;;;4995033;28;20223;-77
2022/02/20 12:41:19;;;;;;;3.78;1.02;;;14.10;99.90;;;;;;4996021;28;20178;-76
2022/02/20 12:43:54;;;;;;;5.00;1.25;;;14.20;99.90;;;;;;4999340;28;20177;-76
2022/02/20 12:46:21;;;;;;;7.05;1.25;;;14.20;99.90;;;;;;4987723;28;20194;-77
2022/02/20 12:48:50;;;;;;;4.33;1.30;;;14.10;99.90;;;;;;4974155;28;20219;-76
2022/02/20 12:51:16;;;;;;;6.30;1.10;;;14.10;99.90;;;;;;4983650;28;20593;-76
2022/02/20 12:53:43;;;;;;;5.57;1.00;;;14.10;99.90;;;;;;4986864;28;20197;-78
2022/02/20 12:56:09;;;;;;;3.75;1.13;;;14.10;99.90;;;;;;4985078;28;20598;-79
2022/02/20 12:58:48;;;;;;;8.67;2.23;;;14.10;99.90;;;;;;4980365;28;20191;-77
2022/02/20 13:01:19;;;;;;;8.27;1.70;;;14.10;99.90;;;;;;4985361;28;20176;-76
2022/02/20 13:03:49;;;;;;;5.60;2.95;;;14.10;99.90;;;;;;4980689;28;20265;-77
2022/02/20 13:06:15;;;;;;;8.57;1.95;;;14.00;99.90;;;;;;4995321;28;20791;-78
2022/02/20 13:08:41;;;;;;;6.53;2.40;;;14.00;99.90;;;;;;4985513;28;20206;-78